createdAt,value
2023-07-26T00:00:05.934Z,13.7
2023-07-26T00:01:22.220Z,10
2023-07-26T00:02:38.526Z,11.5
2023-07-26T00:03:54.811Z,9.8
2023-07-26T00:05:11.114Z,8.8
2023-07-26T00:06:26.414Z,14.2
2023-07-26T00:07:42.000Z,11.6
2023-07-26T00:08:58.996Z,9.4
2023-07-26T00:10:15.298Z,7.9
2023-07-26T00:11:31.579Z,12.8
2023-07-26T00:12:47.882Z,9.7
2023-07-26T00:14:04.173Z,8.9
2023-07-26T00:15:20.467Z,8.4
2023-07-26T00:16:36.767Z,10.8
2023-07-26T00:17:53.042Z,9.5
2023-07-26T00:19:09.359Z,8.8
2023-07-26T00:20:25.646Z,10.6
2023-07-26T00:21:41.949Z,11.4
2023-07-26T00:22:57.000Z,9.8
2023-07-26T00:24:13.536Z,8.5
2023-07-26T00:25:29.817Z,10
2023-07-26T00:26:46.119Z,8
2023-07-26T00:28:02.411Z,7.8
2023-07-26T00:29:18.692Z,7.1
2023-07-26T00:30:35.000Z,10.1
2023-07-26T00:31:51.280Z,8
2023-07-26T00:33:07.573Z,7.2
2023-07-26T00:34:23.875Z,7.1
2023-07-26T00:35:40.173Z,7.4
2023-07-26T00:36:56.459Z,8.1
2023-07-26T00:38:12.749Z,7.9
2023-07-26T00:39:28.051Z,6.1
2023-07-26T00:40:44.357Z,6
2023-07-26T00:42:00.645Z,7.5
2023-07-26T00:43:16.930Z,10.1
2023-07-26T00:44:33.240Z,8.1
2023-07-26T00:45:49.520Z,6.5
2023-07-26T00:47:05.935Z,8.2
2023-07-26T00:48:22.236Z,7.6
2023-07-26T00:49:38.530Z,11.2
2023-07-26T00:50:54.828Z,8.9
2023-07-26T00:52:11.120Z,6.7
2023-07-26T00:53:27.410Z,10.2
2023-07-26T00:54:43.703Z,11.1
2023-07-26T00:55:59.000Z,6.5
2023-07-26T00:57:16.290Z,7.1
2023-07-26T00:58:32.571Z,8.5
2023-07-26T00:59:48.860Z,5.4
2023-07-26T01:01:05.155Z,9.4
2023-07-26T01:02:21.460Z,12.9
2023-07-26T01:03:36.760Z,9.8
2023-07-26T01:04:53.046Z,6.8
2023-07-26T01:06:09.000Z,9.9
2023-07-26T01:07:25.640Z,6.6
2023-07-26T01:08:41.934Z,6.9
2023-07-26T01:09:58.230Z,8
2023-07-26T01:11:14.512Z,9.1
2023-07-26T01:12:30.819Z,6.2
2023-07-26T01:13:47.109Z,8.6
2023-07-26T01:15:03.400Z,7
2023-07-26T01:16:19.707Z,7.2
2023-07-26T01:17:35.972Z,5.2
2023-07-26T01:18:52.282Z,7.7
2023-07-26T01:20:07.593Z,7.7
2023-07-26T01:21:23.873Z,10
2023-07-26T01:22:40.176Z,7.2
2023-07-26T01:23:56.462Z,6.2
2023-07-26T01:25:12.759Z,7.4
2023-07-26T01:26:29.040Z,6.3
2023-07-26T01:27:45.344Z,8.2
2023-07-26T01:29:01.640Z,7.1
2023-07-26T01:30:17.930Z,7.3
2023-07-26T01:31:34.228Z,7.5
2023-07-26T01:32:50.514Z,9.8
2023-07-26T01:34:06.819Z,7.9
2023-07-26T01:35:23.093Z,6.7
2023-07-26T01:36:38.410Z,10.7
2023-07-26T01:37:54.697Z,6.1
2023-07-26T01:39:11.006Z,6.8
2023-07-26T01:40:27.285Z,6.7
2023-07-26T01:41:43.570Z,13.4
2023-07-26T01:42:59.884Z,6.1
2023-07-26T01:44:16.167Z,7.5
2023-07-26T01:45:32.459Z,8.5
2023-07-26T01:46:48.751Z,6.4
2023-07-26T01:48:05.048Z,6.7
2023-07-26T01:49:21.334Z,7.3
2023-07-26T01:50:37.624Z,7.7
2023-07-26T01:51:53.909Z,7.7
2023-07-26T01:53:09.222Z,7.3
2023-07-26T01:54:25.526Z,7.8
2023-07-26T01:55:41.818Z,8.9
2023-07-26T01:56:58.097Z,8.1
2023-07-26T01:58:14.403Z,8.7
2023-07-26T01:59:30.681Z,6.6
2023-07-26T02:00:46.974Z,9.2
2023-07-26T02:02:03.283Z,8.5
2023-07-26T02:03:19.565Z,6.9
2023-07-26T02:04:35.867Z,10.5
2023-07-26T02:05:52.149Z,8
2023-07-26T02:07:08.456Z,9.1
2023-07-26T02:08:24.752Z,7.1
2023-07-26T02:09:40.042Z,8.1
2023-07-26T02:10:56.336Z,8.5
2023-07-26T02:12:12.000Z,10.8
2023-07-26T02:13:28.938Z,7.2
2023-07-26T02:14:45.216Z,6.4
2023-07-26T02:16:01.520Z,6.6
2023-07-26T02:17:17.810Z,7
2023-07-26T02:18:34.105Z,5.9
2023-07-26T02:19:50.390Z,9.1
2023-07-26T02:21:06.687Z,7.5
2023-07-26T02:22:22.969Z,4.2
2023-07-26T02:23:39.280Z,8.8
2023-07-26T02:24:55.561Z,5.3
2023-07-26T02:26:10.877Z,10.2
2023-07-26T02:27:27.166Z,5.3
2023-07-26T02:28:43.465Z,10.7
2023-07-26T02:29:59.760Z,8.2
2023-07-26T02:31:16.056Z,8.5
2023-07-26T02:32:32.349Z,6.4
2023-07-26T02:33:48.635Z,8.4
2023-07-26T02:35:04.000Z,7.6
2023-07-26T02:36:21.212Z,7
2023-07-26T02:37:37.000Z,6.6
2023-07-26T02:38:53.793Z,8.4
2023-07-26T02:40:10.107Z,7.1
2023-07-26T02:41:26.378Z,8.2
2023-07-26T02:42:41.706Z,6.3
2023-07-26T02:43:57.978Z,6.6
2023-07-26T02:45:14.271Z,7.4
2023-07-26T02:46:30.566Z,6.9
2023-07-26T02:47:46.880Z,6.6
2023-07-26T02:49:03.155Z,8.5
2023-07-26T02:50:19.460Z,7.9
2023-07-26T02:51:35.684Z,7.8
2023-07-26T02:52:51.985Z,6.9
2023-07-26T02:54:08.298Z,6.8
2023-07-26T02:55:24.584Z,8.8
2023-07-26T02:56:40.854Z,5.8
2023-07-26T02:57:57.163Z,9.1
2023-07-26T02:59:12.424Z,8.2
2023-07-26T03:00:28.675Z,5.9
2023-07-26T03:01:44.892Z,8.9
2023-07-26T03:03:01.205Z,7.3
2023-07-26T03:04:17.451Z,7.8
2023-07-26T03:05:33.690Z,7.3
2023-07-26T03:06:49.911Z,7.6
2023-07-26T03:08:06.229Z,8
2023-07-26T03:09:22.472Z,7
2023-07-26T03:10:38.703Z,7.6
2023-07-26T03:11:54.959Z,7.3
2023-07-26T03:13:11.180Z,8.4
2023-07-26T03:14:27.436Z,5.8
2023-07-26T03:15:42.672Z,5.6
2023-07-26T03:16:58.939Z,7.6
2023-07-26T03:18:15.169Z,9
2023-07-26T03:19:31.403Z,9.2
2023-07-26T03:20:47.652Z,6.9
2023-07-26T03:22:03.891Z,9
2023-07-26T03:23:20.115Z,5.8
2023-07-26T03:24:36.365Z,7.1
2023-07-26T03:25:52.604Z,7.2
2023-07-26T03:27:08.823Z,8.8
2023-07-26T03:28:25.081Z,5.1
2023-07-26T03:29:41.298Z,7.7
2023-07-26T03:30:57.560Z,9.9
2023-07-26T03:32:12.811Z,8.4
2023-07-26T03:33:29.038Z,5.9
2023-07-26T03:34:45.292Z,9.3
2023-07-26T03:36:01.535Z,6.3
2023-07-26T03:37:17.766Z,6.9
2023-07-26T03:38:34.011Z,4.2
2023-07-26T03:39:50.225Z,6.9
2023-07-26T03:41:06.488Z,6.3
2023-07-26T03:42:22.725Z,8
2023-07-26T03:43:38.000Z,6
2023-07-26T03:44:55.182Z,8
2023-07-26T03:46:11.000Z,6.9
2023-07-26T03:47:27.678Z,8.2
2023-07-26T03:48:42.938Z,9
2023-07-26T03:49:59.174Z,5.7
2023-07-26T03:51:15.426Z,8.2
2023-07-26T03:52:31.629Z,7.6
2023-07-26T03:53:47.880Z,6.6
2023-07-26T03:55:04.111Z,10.7
2023-07-26T03:56:20.374Z,5.5
2023-07-26T03:57:36.604Z,6.7
2023-07-26T03:58:52.846Z,7.5
2023-07-26T04:00:09.091Z,7.2
2023-07-26T04:01:25.306Z,10.1
2023-07-26T04:02:41.554Z,10.9
2023-07-26T04:03:57.784Z,6.6
2023-07-26T04:05:13.057Z,5.8
2023-07-26T04:06:29.303Z,5.7
2023-07-26T04:07:45.539Z,6.2
2023-07-26T04:09:01.781Z,6
2023-07-26T04:10:17.994Z,8.8
2023-07-26T04:11:34.259Z,7.8
2023-07-26T04:12:50.504Z,10
2023-07-26T04:14:06.736Z,5.9
2023-07-26T04:15:22.952Z,5.8
2023-07-26T04:16:39.195Z,7.8
2023-07-26T04:17:55.449Z,10
2023-07-26T04:19:11.697Z,9.9
2023-07-26T04:20:27.910Z,5.4
2023-07-26T04:21:43.170Z,6.4
2023-07-26T04:22:59.407Z,6.7
2023-07-26T04:24:15.000Z,9.1
2023-07-26T04:25:31.880Z,6.6
2023-07-26T04:26:48.000Z,7.1
2023-07-26T04:28:04.388Z,8
2023-07-26T04:29:20.618Z,9.5
2023-07-26T04:30:36.841Z,9.9
2023-07-26T04:31:53.088Z,8.4
2023-07-26T04:33:09.328Z,5.9
2023-07-26T04:34:25.569Z,5.7
2023-07-26T04:35:41.796Z,7.6
2023-07-26T04:36:58.035Z,8.9
2023-07-26T04:38:14.289Z,5
2023-07-26T04:39:29.534Z,7.9
2023-07-26T04:40:45.777Z,7.4
2023-07-26T04:42:02.036Z,8.5
2023-07-26T04:43:18.249Z,7.5
2023-07-26T04:44:34.511Z,6.8
2023-07-26T04:45:50.749Z,6.2
2023-07-26T04:47:06.985Z,6.3
2023-07-26T04:48:23.205Z,8.5
2023-07-26T04:49:39.465Z,5.9
2023-07-26T04:50:55.683Z,5.7
2023-07-26T04:52:11.943Z,10.5
2023-07-26T04:53:28.182Z,9.4
2023-07-26T04:54:44.394Z,10
2023-07-26T04:55:59.681Z,9.1
2023-07-26T04:57:15.918Z,7.8
2023-07-26T04:58:32.128Z,8.5
2023-07-26T04:59:48.367Z,6.8
2023-07-26T05:01:04.615Z,9.6
2023-07-26T05:02:19.904Z,9.8
2023-07-26T05:03:36.125Z,6.4
2023-07-26T05:04:52.358Z,7.9
2023-07-26T05:06:08.591Z,8.2
2023-07-26T05:07:24.845Z,7.7
2023-07-26T05:08:41.093Z,6.1
2023-07-26T05:09:57.327Z,6.7
2023-07-26T05:11:13.555Z,9
2023-07-26T05:12:29.783Z,7
2023-07-26T05:13:46.020Z,9
2023-07-26T05:15:02.272Z,6.4
2023-07-26T05:16:18.520Z,9.5
2023-07-26T05:17:34.763Z,9
2023-07-26T05:18:49.998Z,8.2
2023-07-26T05:20:06.234Z,9.8
2023-07-26T05:21:22.472Z,9.2
2023-07-26T05:22:38.710Z,8.4
2023-07-26T05:23:54.971Z,7.4
2023-07-26T05:25:11.214Z,8.5
2023-07-26T05:26:27.426Z,8
2023-07-26T05:27:43.000Z,8.2
2023-07-26T05:28:59.928Z,8.7
2023-07-26T05:30:16.147Z,11
2023-07-26T05:31:32.389Z,6.7
2023-07-26T05:32:48.627Z,7
2023-07-26T05:34:04.896Z,6.8
2023-07-26T05:35:20.118Z,6
2023-07-26T05:36:36.383Z,10.2
2023-07-26T05:37:52.601Z,5.2
2023-07-26T05:39:08.847Z,8.8
2023-07-26T05:40:25.099Z,6.3
2023-07-26T05:41:41.316Z,7.5
2023-07-26T05:42:57.577Z,6.1
2023-07-26T05:44:13.820Z,6.1
2023-07-26T05:45:30.045Z,6.8
2023-07-26T05:46:46.279Z,7.8
2023-07-26T05:48:02.526Z,5.8
2023-07-26T05:49:18.771Z,9.7
2023-07-26T05:50:35.024Z,6.7
2023-07-26T05:51:50.255Z,7.3
2023-07-26T05:53:06.478Z,6
2023-07-26T05:54:22.720Z,8.7
2023-07-26T05:55:38.985Z,8.6
2023-07-26T05:56:55.193Z,5.2
2023-07-26T05:58:11.446Z,5.9
2023-07-26T05:59:27.675Z,5.4
2023-07-26T06:00:43.912Z,8.8
2023-07-26T06:02:00.155Z,7.2
2023-07-26T06:03:16.386Z,7
2023-07-26T06:04:32.638Z,5.6
2023-07-26T06:05:48.000Z,4.6
2023-07-26T06:07:05.111Z,8.9
2023-07-26T06:08:20.361Z,6.7
2023-07-26T06:09:36.604Z,6.1
2023-07-26T06:10:52.000Z,5.9
2023-07-26T06:12:09.102Z,10.7
2023-07-26T06:13:25.000Z,9.8
2023-07-26T06:14:41.568Z,4.2
2023-07-26T06:15:57.788Z,7.3
2023-07-26T06:17:14.028Z,7.7
2023-07-26T06:18:30.268Z,5.7
2023-07-26T06:19:46.510Z,6.8
2023-07-26T06:21:02.000Z,5.8
2023-07-26T06:22:18.983Z,6.2
2023-07-26T06:23:35.000Z,4.9
2023-07-26T06:24:51.580Z,7.5
2023-07-26T06:26:07.833Z,7.9
2023-07-26T06:27:24.061Z,5.1
2023-07-26T06:28:40.323Z,6.7
2023-07-26T06:29:56.550Z,6.7
2023-07-26T06:31:12.804Z,5.4
2023-07-26T06:32:29.022Z,8.8
2023-07-26T06:33:45.277Z,8
2023-07-26T06:35:01.516Z,6.1
2023-07-26T06:36:17.000Z,4.8
2023-07-26T06:37:33.976Z,7
2023-07-26T06:38:50.239Z,8.9
2023-07-26T06:40:06.469Z,9.1
2023-07-26T06:41:21.701Z,7.9
2023-07-26T06:42:37.952Z,7.3
2023-07-26T06:43:54.000Z,5.4
2023-07-26T06:45:10.447Z,8.4
2023-07-26T06:46:26.662Z,5.5
2023-07-26T06:47:42.901Z,6.9
2023-07-26T06:48:59.142Z,6.3
2023-07-26T06:50:15.404Z,4.4
2023-07-26T06:51:31.000Z,6.6
2023-07-26T06:52:47.857Z,4.6
2023-07-26T06:54:04.090Z,9.9
2023-07-26T06:55:20.338Z,6.8
2023-07-26T06:56:36.577Z,8.8
2023-07-26T06:57:51.834Z,9.3
2023-07-26T06:59:08.062Z,6.8
2023-07-26T07:00:24.297Z,4.7
2023-07-26T07:01:40.561Z,7
2023-07-26T07:02:56.786Z,6.8
2023-07-26T07:04:13.037Z,6.6
2023-07-26T07:05:29.276Z,7.7
2023-07-26T07:06:45.513Z,5.3
2023-07-26T07:08:01.752Z,6.6
2023-07-26T07:09:17.980Z,8.2
2023-07-26T07:10:34.204Z,9.3
2023-07-26T07:11:50.448Z,7.2
2023-07-26T07:13:06.712Z,6.3
2023-07-26T07:14:21.974Z,9.9
2023-07-26T07:15:38.179Z,7.4
2023-07-26T07:16:54.421Z,6.2
2023-07-26T07:18:10.662Z,11.2
2023-07-26T07:19:26.892Z,9.6
2023-07-26T07:20:43.171Z,9.1
2023-07-26T07:21:59.372Z,8.2
2023-07-26T07:23:15.621Z,10.8
2023-07-26T07:24:31.847Z,6.1
2023-07-26T07:25:48.098Z,9.5
2023-07-26T07:27:04.336Z,7.5
2023-07-26T07:28:20.570Z,6.4
2023-07-26T07:29:36.832Z,6.8
2023-07-26T07:30:52.086Z,6.2
2023-07-26T07:32:08.335Z,9.1
2023-07-26T07:33:24.552Z,8
2023-07-26T07:34:40.773Z,5.8
2023-07-26T07:35:57.026Z,7.2
2023-07-26T07:37:13.277Z,7.4
2023-07-26T07:38:29.518Z,5.4
2023-07-26T07:39:45.738Z,7.8
2023-07-26T07:41:01.979Z,8.7
2023-07-26T07:42:18.208Z,7.8
2023-07-26T07:43:34.471Z,8.4
2023-07-26T07:44:50.712Z,6.1
2023-07-26T07:46:06.924Z,9.5
2023-07-26T07:47:22.192Z,9.2
2023-07-26T07:48:38.419Z,7.1
2023-07-26T07:49:54.673Z,9.8
2023-07-26T07:51:10.895Z,7.7
2023-07-26T07:52:27.135Z,6.5
2023-07-26T07:53:43.403Z,5.9
2023-07-26T07:54:59.640Z,7.8
2023-07-26T07:56:15.854Z,6.8
2023-07-26T07:57:32.090Z,8.5
2023-07-26T07:58:48.336Z,5.8
2023-07-26T08:00:04.600Z,7.6
2023-07-26T08:01:20.815Z,6.3
2023-07-26T08:02:37.051Z,7.1
2023-07-26T08:03:53.435Z,7.7
2023-07-26T08:05:09.638Z,6.1
2023-07-26T08:06:25.886Z,8.1
2023-07-26T08:07:42.118Z,5.6
2023-07-26T08:08:58.357Z,7.6
2023-07-26T08:10:14.630Z,7.5
2023-07-26T08:11:30.845Z,7.4
2023-07-26T08:12:47.086Z,6.4
2023-07-26T08:14:03.309Z,6.5
2023-07-26T08:15:19.553Z,7.5
2023-07-26T08:16:35.800Z,8.4
2023-07-26T08:17:52.024Z,5.8
2023-07-26T08:19:08.263Z,4.1
2023-07-26T08:20:23.544Z,5
2023-07-26T08:21:39.756Z,7.1
2023-07-26T08:22:56.013Z,7.9
2023-07-26T08:24:12.262Z,4.7
2023-07-26T08:25:28.478Z,6
2023-07-26T08:26:44.714Z,5.5
2023-07-26T08:28:00.957Z,4.7
2023-07-26T08:29:17.228Z,4
2023-07-26T08:30:33.457Z,4
2023-07-26T08:31:49.681Z,5.4
2023-07-26T08:33:05.939Z,4.5
2023-07-26T08:34:22.152Z,5
2023-07-26T08:36:54.627Z,7.6
2023-07-26T08:38:09.905Z,6.8
2023-07-26T08:39:26.115Z,5
2023-07-26T08:40:42.387Z,6.7
2023-07-26T08:41:58.596Z,5.8
2023-07-26T08:43:14.844Z,6.1
2023-07-26T08:44:31.080Z,5.7
2023-07-26T08:45:47.306Z,4
2023-07-26T08:47:03.555Z,4.8
2023-07-26T08:48:19.784Z,4.2
2023-07-26T08:49:36.054Z,3.9
2023-07-26T08:50:52.261Z,4.1
2023-07-26T08:52:08.510Z,7.8
2023-07-26T08:53:24.767Z,8.8
2023-07-26T08:54:40.027Z,4.7
2023-07-26T08:55:56.244Z,5.8
2023-07-26T08:57:12.510Z,4.4
2023-07-26T08:58:28.723Z,5.2
2023-07-26T08:59:44.951Z,6.3
2023-07-26T09:01:01.215Z,5.9
2023-07-26T09:02:17.426Z,3
2023-07-26T09:03:33.000Z,6.3
2023-07-26T09:04:49.912Z,2.9
2023-07-26T09:06:06.000Z,4.5
2023-07-26T09:07:22.381Z,3.6
2023-07-26T09:08:38.000Z,3.3
2023-07-26T09:09:54.867Z,4.3
2023-07-26T09:11:10.120Z,3
2023-07-26T09:12:26.389Z,4.4
2023-07-26T09:13:42.608Z,5.9
2023-07-26T09:14:58.843Z,5
2023-07-26T09:16:15.067Z,3.6
2023-07-26T09:17:30.337Z,4.7
2023-07-26T09:18:46.575Z,4.9
2023-07-26T09:20:02.813Z,4.5
2023-07-26T09:21:19.043Z,5.8
2023-07-26T09:22:35.293Z,4.1
2023-07-26T09:23:51.523Z,5.9
2023-07-26T09:25:07.764Z,4.7
2023-07-26T09:26:24.027Z,4.1
2023-07-26T09:27:40.253Z,4.4
2023-07-26T09:28:56.485Z,4.8
2023-07-26T09:30:12.744Z,3.9
2023-07-26T09:31:28.982Z,4.4
2023-07-26T09:32:45.209Z,3.8
2023-07-26T09:34:00.456Z,5.3
2023-07-26T09:35:16.697Z,4.4
2023-07-26T09:36:32.928Z,4.7
2023-07-26T09:37:49.176Z,4
2023-07-26T09:39:05.432Z,5.5
2023-07-26T09:40:21.658Z,3.2
2023-07-26T09:41:37.914Z,3.9
2023-07-26T09:42:54.153Z,5.9
2023-07-26T09:44:10.366Z,4.3
2023-07-26T09:45:26.609Z,7.6
2023-07-26T09:46:42.867Z,5.4
2023-07-26T09:47:59.079Z,4.9
2023-07-26T09:49:15.332Z,6
2023-07-26T09:50:30.614Z,6.4
2023-07-26T09:51:46.822Z,5.5
2023-07-26T09:53:03.055Z,4.1
2023-07-26T09:54:19.319Z,4.6
2023-07-26T09:55:35.546Z,2.9
2023-07-26T09:56:51.774Z,4.5
2023-07-26T09:58:08.007Z,5.6
2023-07-26T09:59:24.252Z,3.6
2023-07-26T10:00:40.495Z,5.4
2023-07-26T10:01:56.750Z,4.3
2023-07-26T10:03:12.997Z,4.7
2023-07-26T10:04:29.208Z,3
2023-07-26T10:05:45.452Z,5
2023-07-26T10:07:00.721Z,5.6
2023-07-26T10:08:16.938Z,5.4
2023-07-26T10:09:33.170Z,4.1
2023-07-26T10:10:49.461Z,4.5
2023-07-26T10:12:05.682Z,5.5
2023-07-26T10:13:21.890Z,9.3
2023-07-26T10:14:38.134Z,6.1
2023-07-26T10:15:54.369Z,5.9
2023-07-26T10:17:10.650Z,5.8
2023-07-26T10:18:26.846Z,4.5
2023-07-26T10:19:43.082Z,5.1
2023-07-26T10:20:59.356Z,8.5
2023-07-26T10:22:15.566Z,6.7
2023-07-26T10:23:30.831Z,4.7
2023-07-26T10:24:47.070Z,5
2023-07-26T10:26:03.298Z,5.5
2023-07-26T10:27:19.545Z,4.2
2023-07-26T10:28:35.804Z,3.7
2023-07-26T10:29:52.036Z,4.1
2023-07-26T10:31:08.280Z,4.2
2023-07-26T10:32:24.520Z,3.6
2023-07-26T10:33:40.764Z,4.5
2023-07-26T10:34:56.967Z,4.3
2023-07-26T10:36:13.247Z,4.2
2023-07-26T10:37:29.470Z,3.3
2023-07-26T10:38:45.688Z,6.3
2023-07-26T10:40:00.946Z,6.1
2023-07-26T10:41:17.208Z,4.4
2023-07-26T10:42:33.448Z,5.7
2023-07-26T10:43:49.680Z,4.2
2023-07-26T10:45:05.901Z,5.6
2023-07-26T10:46:22.139Z,4.6
2023-07-26T10:47:38.000Z,7.2
2023-07-26T10:48:54.657Z,5.5
2023-07-26T10:50:10.844Z,4
2023-07-26T10:51:27.117Z,5.3
2023-07-26T10:52:43.351Z,5.1
2023-07-26T10:53:59.579Z,5.4
2023-07-26T10:55:15.830Z,4.6
2023-07-26T10:56:31.068Z,6.1
2023-07-26T10:57:47.315Z,5
2023-07-26T10:59:03.568Z,7
2023-07-26T11:00:19.791Z,4.7
2023-07-26T11:01:36.018Z,5.7
2023-07-26T11:02:52.298Z,5
2023-07-26T11:04:08.517Z,5.2
2023-07-26T11:05:24.743Z,5
2023-07-26T11:06:40.975Z,5.4
2023-07-26T11:07:57.214Z,6.5
2023-07-26T11:09:13.446Z,4.6
2023-07-26T11:10:29.720Z,6.6
2023-07-26T11:11:45.949Z,10
2023-07-26T11:13:01.181Z,7.5
2023-07-26T11:14:17.428Z,7.1
2023-07-26T11:15:33.661Z,9.4
2023-07-26T11:16:49.903Z,8.7
2023-07-26T11:18:06.132Z,7.3
2023-07-26T11:19:22.404Z,6.4
2023-07-26T11:20:38.626Z,6.9
2023-07-26T11:21:54.000Z,7.8
2023-07-26T11:23:11.102Z,10.1
2023-07-26T11:24:27.000Z,7.7
2023-07-26T11:25:43.566Z,11.2
2023-07-26T11:26:59.839Z,6.6
2023-07-26T11:28:16.049Z,6.7
2023-07-26T11:29:31.304Z,7.4
2023-07-26T11:30:47.574Z,9.4
2023-07-26T11:32:03.774Z,5
2023-07-26T11:33:20.050Z,6.4
2023-07-26T11:34:36.293Z,6.2
2023-07-26T11:35:52.493Z,6.7
2023-07-26T11:37:08.000Z,5.1
2023-07-26T11:38:25.000Z,4.6
2023-07-26T11:39:41.000Z,4.9
2023-07-26T11:40:57.451Z,6.2
2023-07-26T11:42:13.735Z,4.4
2023-07-26T11:43:29.938Z,4.3
2023-07-26T11:44:46.166Z,3.9
2023-07-26T11:46:01.418Z,3.5
2023-07-26T11:47:17.656Z,3.7
2023-07-26T11:48:33.917Z,2.9
2023-07-26T11:49:50.138Z,2.1
2023-07-26T11:51:06.381Z,2
2023-07-26T11:52:22.628Z,5.4
2023-07-26T11:53:38.847Z,4.2
2023-07-26T11:54:55.093Z,3.6
2023-07-26T11:56:11.328Z,5.3
2023-07-26T11:57:27.568Z,2.5
2023-07-26T11:58:43.807Z,4.5
2023-07-26T12:00:00.051Z,3.8
2023-07-26T12:01:16.292Z,2.6
2023-07-26T12:02:32.664Z,3.9
2023-07-26T12:03:48.895Z,3.2
2023-07-26T12:05:05.123Z,3.7
2023-07-26T12:06:21.365Z,3.3
2023-07-26T12:07:37.600Z,3.4
2023-07-26T12:08:53.840Z,2.8
2023-07-26T12:10:10.081Z,2.3
2023-07-26T12:12:42.562Z,2.8
2023-07-26T12:13:58.802Z,4.4
2023-07-26T12:15:15.034Z,2
2023-07-26T12:16:31.284Z,2.7
2023-07-26T12:17:47.511Z,4.8
2023-07-26T12:19:02.765Z,1.6
2023-07-26T12:20:19.003Z,3.1
2023-07-26T12:21:35.246Z,1.6
2023-07-26T12:22:51.498Z,2.6
2023-07-26T12:24:07.729Z,2.1
2023-07-26T12:25:23.961Z,2.2
2023-07-26T12:26:40.211Z,4.1
2023-07-26T12:27:56.436Z,3.2
2023-07-26T12:29:12.684Z,2.3
2023-07-26T12:30:28.926Z,3.1
2023-07-26T12:31:45.167Z,3.9
2023-07-26T12:33:01.401Z,2.9
2023-07-26T12:34:17.000Z,3
2023-07-26T12:35:32.898Z,3.1
2023-07-26T12:36:49.142Z,3.4
2023-07-26T12:38:05.375Z,3.1
2023-07-26T12:39:21.616Z,4
2023-07-26T12:40:37.850Z,3.4
2023-07-26T12:41:54.087Z,3.3
2023-07-26T12:43:10.344Z,3.4
2023-07-26T12:44:26.579Z,4.6
2023-07-26T12:45:42.817Z,3.7
2023-07-26T12:46:59.058Z,3.9
2023-07-26T12:48:15.286Z,3.9
2023-07-26T12:49:31.545Z,4
2023-07-26T12:50:47.789Z,3.7
2023-07-26T12:52:04.013Z,4.6
2023-07-26T12:53:19.264Z,4.4
2023-07-26T12:54:35.511Z,4.6
2023-07-26T12:55:51.759Z,3.8
2023-07-26T12:57:08.005Z,4.3
2023-07-26T12:58:24.230Z,4.6
2023-07-26T12:59:40.460Z,3.6
2023-07-26T13:00:56.714Z,5.1
2023-07-26T13:02:12.943Z,4.9
2023-07-26T13:03:29.182Z,3.9
2023-07-26T13:04:45.426Z,4
2023-07-26T13:06:01.672Z,4.8
2023-07-26T13:07:17.900Z,4.4
2023-07-26T13:08:34.147Z,3.5
2023-07-26T13:09:49.399Z,4.4
2023-07-26T13:11:05.652Z,4.7
2023-07-26T13:12:21.882Z,3.8
2023-07-26T13:13:38.136Z,5
2023-07-26T13:14:54.373Z,3.9
2023-07-26T13:16:10.602Z,4.9
2023-07-26T13:17:26.843Z,4
2023-07-26T13:18:43.076Z,4
2023-07-26T13:19:59.316Z,4.6
2023-07-26T13:21:15.557Z,5.4
2023-07-26T13:22:31.801Z,3.5
2023-07-26T13:23:48.040Z,4.2
2023-07-26T13:25:04.286Z,3.9
2023-07-26T13:26:20.642Z,4.1
2023-07-26T13:27:36.882Z,7.1
2023-07-26T13:28:53.117Z,3.5
2023-07-26T13:30:09.364Z,4.5
2023-07-26T13:31:25.597Z,3.8
2023-07-26T13:32:40.853Z,4.2
2023-07-26T13:33:57.107Z,5.1
2023-07-26T13:35:13.353Z,4.4
2023-07-26T13:36:29.576Z,4.5
2023-07-26T13:37:45.820Z,5.3
2023-07-26T13:39:02.060Z,4.2
2023-07-26T13:40:18.300Z,3.7
2023-07-26T13:41:34.531Z,5.1
2023-07-26T13:42:50.000Z,4.2
2023-07-26T13:44:07.004Z,4.7
2023-07-26T13:45:23.255Z,4.5
2023-07-26T13:46:39.491Z,4.4
2023-07-26T13:47:55.732Z,3.5
2023-07-26T13:49:10.992Z,5
2023-07-26T13:50:27.244Z,4.9
2023-07-26T13:51:43.470Z,3.7
2023-07-26T13:52:59.707Z,4.4
2023-07-26T13:54:15.945Z,4
2023-07-26T13:55:32.200Z,5
2023-07-26T13:56:48.438Z,6.4
2023-07-26T13:58:04.667Z,4.3
2023-07-26T13:59:20.911Z,3.9
2023-07-26T14:00:37.148Z,3.9
2023-07-26T14:01:53.382Z,3.5
2023-07-26T14:03:09.625Z,4.2
2023-07-26T14:04:25.867Z,5
2023-07-26T14:05:41.128Z,4.2
2023-07-26T14:06:57.379Z,3.9
2023-07-26T14:08:13.600Z,3.6
2023-07-26T14:09:29.846Z,4.1
2023-07-26T14:10:46.075Z,3.8
2023-07-26T14:12:02.000Z,4.2
2023-07-26T14:13:18.572Z,4.8
2023-07-26T14:14:34.800Z,4.2
2023-07-26T14:15:51.049Z,4
2023-07-26T14:17:07.274Z,3.5
2023-07-26T14:18:23.524Z,4.1
2023-07-26T14:19:39.000Z,5
2023-07-26T14:20:55.999Z,5.1
2023-07-26T14:22:11.000Z,3.4
2023-07-26T14:23:27.502Z,6.5
2023-07-26T14:24:43.734Z,3.4
2023-07-26T14:25:59.982Z,4.2
2023-07-26T14:27:16.215Z,3.8
2023-07-26T14:28:32.453Z,4.3
2023-07-26T14:29:48.693Z,3.3
2023-07-26T14:31:04.933Z,4.2
2023-07-26T14:32:21.163Z,3.6
2023-07-26T14:33:37.409Z,3.3
2023-07-26T14:34:53.000Z,5.5
2023-07-26T14:36:09.892Z,3.6
2023-07-26T14:37:26.122Z,2.8
2023-07-26T14:38:41.383Z,4.7
2023-07-26T14:39:57.633Z,6.3
2023-07-26T14:41:13.869Z,4.6
2023-07-26T14:42:30.108Z,3.2
2023-07-26T14:43:46.343Z,2.9
2023-07-26T14:45:02.589Z,2.9
2023-07-26T14:46:18.816Z,4.5
2023-07-26T14:47:35.055Z,3.2
2023-07-26T14:48:51.294Z,3.6
2023-07-26T14:50:07.540Z,3.7
2023-07-26T14:51:23.773Z,3.5
2023-07-26T14:52:40.008Z,6
2023-07-26T14:53:56.250Z,3.6
2023-07-26T14:55:11.507Z,4.1
2023-07-26T14:56:27.753Z,4.3
2023-07-26T14:57:43.989Z,4.1
2023-07-26T14:59:00.221Z,3.6
2023-07-26T15:00:16.463Z,5.4
2023-07-26T15:01:32.710Z,3.6
2023-07-26T15:02:48.942Z,4.2
2023-07-26T15:04:05.179Z,4.5
2023-07-26T15:05:21.425Z,3.1
2023-07-26T15:06:37.670Z,3.6
2023-07-26T15:07:53.911Z,3.9
2023-07-26T15:09:10.150Z,5.3
2023-07-26T15:10:26.375Z,3.2
2023-07-26T15:11:41.630Z,4
2023-07-26T15:12:57.886Z,6.4
2023-07-26T15:14:14.127Z,3.8
2023-07-26T15:15:30.357Z,3.7
2023-07-26T15:16:46.598Z,4.2
2023-07-26T15:18:02.845Z,4.2
2023-07-26T15:19:19.087Z,4.6
2023-07-26T15:20:35.317Z,4
2023-07-26T15:21:51.558Z,3.6
2023-07-26T15:23:07.803Z,2.6
2023-07-26T15:24:24.036Z,4.1
2023-07-26T15:25:40.280Z,5.3
2023-07-26T15:26:56.516Z,3.7
2023-07-26T15:28:11.778Z,6.1
2023-07-26T15:29:28.025Z,6.4
2023-07-26T15:30:44.265Z,4.2
2023-07-26T15:32:00.483Z,4.8
2023-07-26T15:33:16.744Z,3.8
2023-07-26T15:34:32.984Z,6.3
2023-07-26T15:35:49.205Z,3.4
2023-07-26T15:37:05.464Z,4.9
2023-07-26T15:38:21.688Z,4
2023-07-26T15:39:37.936Z,3.6
2023-07-26T15:40:54.189Z,3.7
2023-07-26T15:42:10.420Z,5.5
2023-07-26T15:43:26.668Z,4.8
2023-07-26T15:44:41.910Z,4.7
2023-07-26T15:45:58.145Z,4.8
2023-07-26T15:47:14.401Z,3.2
2023-07-26T15:48:30.618Z,4.5
2023-07-26T15:49:46.861Z,3.7
2023-07-26T15:51:03.000Z,3.4
2023-07-26T15:52:19.362Z,3.8
2023-07-26T15:53:35.590Z,3.9
2023-07-26T15:54:51.839Z,6.4
2023-07-26T15:56:08.067Z,5.5
2023-07-26T15:57:24.299Z,8.1
2023-07-26T15:58:40.549Z,5.5
2023-07-26T15:59:56.792Z,3.6
2023-07-26T16:01:12.040Z,3
2023-07-26T16:02:28.284Z,3.3
2023-07-26T16:03:44.527Z,3.9
2023-07-26T16:05:00.767Z,3.1
2023-07-26T16:06:17.015Z,4.4
2023-07-26T16:07:33.241Z,3.6
2023-07-26T16:08:49.473Z,6
2023-07-26T16:10:05.727Z,3.6
2023-07-26T16:11:21.959Z,4.6
2023-07-26T16:12:38.203Z,3.9
2023-07-26T16:13:54.428Z,4
2023-07-26T16:15:10.684Z,3.8
2023-07-26T16:16:26.000Z,4.5
2023-07-26T16:17:42.170Z,4.8
2023-07-26T16:18:58.415Z,5.6
2023-07-26T16:20:14.649Z,4.6
2023-07-26T16:21:30.894Z,5.8
2023-07-26T16:22:47.128Z,4
2023-07-26T16:24:03.377Z,3.5
2023-07-26T16:25:19.600Z,3.7
2023-07-26T16:26:35.841Z,3.6
2023-07-26T16:27:52.089Z,5.2
2023-07-26T16:29:08.000Z,5
2023-07-26T16:30:24.572Z,5.4
2023-07-26T16:31:40.795Z,3.5
2023-07-26T16:32:57.036Z,4.5
2023-07-26T16:34:13.392Z,3.2
2023-07-26T16:35:29.646Z,3.3
2023-07-26T16:36:45.872Z,5.8
2023-07-26T16:38:02.132Z,4
2023-07-26T16:39:18.000Z,3.3
2023-07-26T16:40:34.595Z,4.9
2023-07-26T16:41:50.838Z,4.4
2023-07-26T16:43:07.076Z,3.6
2023-07-26T16:44:23.320Z,4.5
2023-07-26T16:45:39.574Z,6.1
2023-07-26T16:46:55.806Z,3.8
2023-07-26T16:48:12.058Z,3.8
2023-07-26T16:49:28.000Z,4.4
2023-07-26T16:50:43.534Z,5.1
2023-07-26T16:51:59.777Z,5.6
2023-07-26T16:53:16.013Z,4.1
2023-07-26T16:54:32.262Z,4
2023-07-26T16:55:48.505Z,4.2
2023-07-26T16:57:04.734Z,4.8
2023-07-26T16:58:20.992Z,4.4
2023-07-26T16:59:37.225Z,3.3
2023-07-26T17:00:53.457Z,4.2
2023-07-26T17:02:09.692Z,3.6
2023-07-26T17:03:25.931Z,3.6
2023-07-26T17:04:42.179Z,3.1
2023-07-26T17:05:58.000Z,4.6
2023-07-26T17:07:13.693Z,4.3
2023-07-26T17:08:29.934Z,4.8
2023-07-26T17:09:46.161Z,5.6
2023-07-26T17:11:02.401Z,3.9
2023-07-26T17:12:18.653Z,3.7
2023-07-26T17:13:34.881Z,5
2023-07-26T17:14:51.123Z,6.3
2023-07-26T17:16:07.352Z,4.4
2023-07-26T17:17:23.607Z,5.5
2023-07-26T17:18:39.847Z,4.8
2023-07-26T17:19:56.084Z,5.2
2023-07-26T17:21:12.339Z,4.3
2023-07-26T17:22:28.572Z,3.3
2023-07-26T17:23:43.830Z,5.5
2023-07-26T17:25:00.053Z,4.8
2023-07-26T17:26:16.295Z,8.5
2023-07-26T17:27:32.544Z,4.2
2023-07-26T17:28:48.783Z,4.6
2023-07-26T17:30:05.023Z,6
2023-07-26T17:31:21.279Z,7.7
2023-07-26T17:32:37.492Z,3.9
2023-07-26T17:33:53.732Z,7.3
2023-07-26T17:35:09.973Z,4.7
2023-07-26T17:36:26.217Z,3.4